sensor_id;sensor_type;location;lat;lon;timestamp;pressure;altitude;pressure_sealevel;temperature;humidity
54503;BME280;40411;50.090;21.954;2024-03-07T00:00:06;65256.63;;;5.00;100.00
54503;BME280;40411;50.090;21.954;2024-03-07T00:02:59;65186.84;;;5.66;100.00
54503;BME280;40411;50.090;21.954;2024-03-07T00:05:26;65195.19;;;5.54;100.00
54503;BME280;40411;50.090;21.954;2024-03-07T00:07:53;65183.34;;;5.67;100.00
54503;BME280;40411;50.090;21.954;2024-03-07T00:10:19;65230.31;;;5.18;100.00
54503;BME280;40411;50.090;21.954;2024-03-07T00:12:47;65225.25;;;5.37;100.00
54503;BME280;40411;50.090;21.954;2024-03-07T00:15:14;65200.25;;;5.35;100.00
54503;BME280;40411;50.090;21.954;2024-03-07T00:17:41;65222.56;;;5.42;100.00
54503;BME280;40411;50.090;21.954;2024-03-07T00:20:08;65221.41;;;5.17;100.00
54503;BME280;40411;50.090;21.954;2024-03-07T00:22:40;65278.91;;;4.94;100.00
54503;BME280;40411;50.090;21.954;2024-03-07T00:25:07;65210.03;;;5.23;100.00
54503;BME280;40411;50.090;21.954;2024-03-07T00:27:35;65278.09;;;4.91;100.00
54503;BME280;40411;50.090;21.954;2024-03-07T00:30:05;65247.06;;;4.91;100.00
54503;BME280;40411;50.090;21.954;2024-03-07T00:32:34;65196.53;;;5.46;100.00
54503;BME280;40411;50.090;21.954;2024-03-07T00:35:02;65226.69;;;5.01;100.00
54503;BME280;40411;50.090;21.954;2024-03-07T00:37:31;65199.22;;;5.65;99.50
54503;BME280;40411;50.090;21.954;2024-03-07T00:39:57;65280.78;;;4.86;100.00
54503;BME280;40411;50.090;21.954;2024-03-07T00:42:23;65272.03;;;4.92;100.00
54503;BME280;40411;50.090;21.954;2024-03-07T00:44:49;65278.03;;;4.67;100.00
54503;BME280;40411;50.090;21.954;2024-03-07T00:47:15;65276.00;;;5.20;100.00
54503;BME280;40411;50.090;21.954;2024-03-07T00:49:44;65279.28;;;4.76;100.00
54503;BME280;40411;50.090;21.954;2024-03-07T00:52:12;65238.28;;;5.09;100.00
54503;BME280;40411;50.090;21.954;2024-03-07T00:54:39;65252.38;;;5.22;100.00
54503;BME280;40411;50.090;21.954;2024-03-07T00:57:05;65190.56;;;5.55;100.00
54503;BME280;40411;50.090;21.954;2024-03-07T00:59:31;65189.34;;;5.35;100.00
54503;BME280;40411;50.090;21.954;2024-03-07T01:01:56;65220.97;;;5.59;100.00
54503;BME280;40411;50.090;21.954;2024-03-07T01:04:22;65245.72;;;5.11;100.00
54503;BME280;40411;50.090;21.954;2024-03-07T01:06:50;65236.50;;;5.12;100.00
54503;BME280;40411;50.090;21.954;2024-03-07T01:09:16;65213.66;;;5.52;99.81
54503;BME280;40411;50.090;21.954;2024-03-07T01:11:44;65196.63;;;5.65;99.00
54503;BME280;40411;50.090;21.954;2024-03-07T01:14:11;65264.06;;;5.13;99.93
54503;BME280;40411;50.090;21.954;2024-03-07T01:16:37;65230.44;;;5.25;99.65
54503;BME280;40411;50.090;21.954;2024-03-07T01:19:03;65242.03;;;5.10;100.00
54503;BME280;40411;50.090;21.954;2024-03-07T01:21:35;65238.31;;;5.32;99.97
54503;BME280;40411;50.090;21.954;2024-03-07T01:24:01;65200.00;;;5.68;98.31
54503;BME280;40411;50.090;21.954;2024-03-07T01:26:28;65204.66;;;5.44;99.60
54503;BME280;40411;50.090;21.954;2024-03-07T01:28:56;65238.56;;;5.47;98.38
54503;BME280;40411;50.090;21.954;2024-03-07T01:31:22;65283.34;;;4.75;100.00
54503;BME280;40411;50.090;21.954;2024-03-07T01:33:49;65226.38;;;5.50;98.34
54503;BME280;40411;50.090;21.954;2024-03-07T01:36:14;65233.56;;;5.14;99.62
54503;BME280;40411;50.090;21.954;2024-03-07T01:38:41;65236.63;;;5.54;99.03
54503;BME280;40411;50.090;21.954;2024-03-07T01:41:07;65193.81;;;5.63;97.32
54503;BME280;40411;50.090;21.954;2024-03-07T01:43:34;65205.44;;;5.59;99.13
54503;BME280;40411;50.090;21.954;2024-03-07T01:46:00;65255.28;;;5.08;100.00
54503;BME280;40411;50.090;21.954;2024-03-07T01:48:28;65266.78;;;4.57;100.00
54503;BME280;40411;50.090;21.954;2024-03-07T01:50:55;65226.13;;;5.12;100.00
54503;BME280;40411;50.090;21.954;2024-03-07T01:53:22;65280.03;;;5.07;100.00
54503;BME280;40411;50.090;21.954;2024-03-07T01:55:49;65231.00;;;5.37;98.81
54503;BME280;40411;50.090;21.954;2024-03-07T01:58:18;65228.16;;;5.70;97.27
54503;BME280;40411;50.090;21.954;2024-03-07T02:00:45;65230.31;;;5.30;98.34
54503;BME280;40411;50.090;21.954;2024-03-07T02:03:11;65270.34;;;4.91;99.51
54503;BME280;40411;50.090;21.954;2024-03-07T02:05:42;65276.63;;;4.80;99.48
54503;BME280;40411;50.090;21.954;2024-03-07T02:08:08;65232.44;;;5.13;99.00
54503;BME280;40411;50.090;21.954;2024-03-07T02:10:34;65333.22;;;4.54;100.00
54503;BME280;40411;50.090;21.954;2024-03-07T02:13:00;65285.97;;;4.86;99.74
54503;BME280;40411;50.090;21.954;2024-03-07T02:15:29;65278.97;;;4.78;100.00
54503;BME280;40411;50.090;21.954;2024-03-07T02:17:56;65242.25;;;5.24;97.87
54503;BME280;40411;50.090;21.954;2024-03-07T02:20:23;65298.69;;;4.96;99.28
54503;BME280;40411;50.090;21.954;2024-03-07T02:22:49;65304.34;;;4.61;99.97
54503;BME280;40411;50.090;21.954;2024-03-07T02:25:16;65241.66;;;5.12;98.75
54503;BME280;40411;50.090;21.954;2024-03-07T02:27:42;65262.97;;;5.36;97.75
54503;BME280;40411;50.090;21.954;2024-03-07T02:30:08;65211.97;;;5.51;97.24
54503;BME280;40411;50.090;21.954;2024-03-07T02:32:35;65283.88;;;5.03;97.22
54503;BME280;40411;50.090;21.954;2024-03-07T02:35:04;65274.22;;;5.34;97.63
54503;BME280;40411;50.090;21.954;2024-03-07T02:37:30;65274.75;;;5.00;98.06
54503;BME280;40411;50.090;21.954;2024-03-07T02:39:56;65281.38;;;4.59;99.98
54503;BME280;40411;50.090;21.954;2024-03-07T02:42:22;65266.91;;;5.16;97.67
54503;BME280;40411;50.090;21.954;2024-03-07T02:44:48;65249.78;;;5.10;97.64
54503;BME280;40411;50.090;21.954;2024-03-07T02:47:14;65298.59;;;5.00;98.45
54503;BME280;40411;50.090;21.954;2024-03-07T02:49:42;65258.19;;;4.94;98.70
54503;BME280;40411;50.090;21.954;2024-03-07T02:52:08;65276.31;;;5.06;97.75
54503;BME280;40411;50.090;21.954;2024-03-07T02:54:34;65303.88;;;4.56;98.95
54503;BME280;40411;50.090;21.954;2024-03-07T02:57:01;65245.72;;;5.11;97.81
54503;BME280;40411;50.090;21.954;2024-03-07T02:59:27;65223.75;;;4.91;98.84
54503;BME280;40411;50.090;21.954;2024-03-07T03:01:53;65284.06;;;4.82;98.73
54503;BME280;40411;50.090;21.954;2024-03-07T03:04:21;65299.50;;;4.99;97.84
54503;BME280;40411;50.090;21.954;2024-03-07T03:06:47;65270.03;;;5.05;97.50
54503;BME280;40411;50.090;21.954;2024-03-07T03:09:13;65287.84;;;5.30;96.32
54503;BME280;40411;50.090;21.954;2024-03-07T03:11:46;65283.88;;;5.03;96.64
54503;BME280;40411;50.090;21.954;2024-03-07T03:14:12;65254.88;;;5.38;96.65
54503;BME280;40411;50.090;21.954;2024-03-07T03:16:42;65230.66;;;5.16;96.34
54503;BME280;40411;50.090;21.954;2024-03-07T03:19:10;65281.72;;;4.97;97.04
54503;BME280;40411;50.090;21.954;2024-03-07T03:21:36;65311.31;;;4.58;98.12
54503;BME280;40411;50.090;21.954;2024-03-07T03:24:03;65273.25;;;5.41;95.14
54503;BME280;40411;50.090;21.954;2024-03-07T03:26:29;65315.81;;;4.62;98.46
54503;BME280;40411;50.090;21.954;2024-03-07T03:28:57;65246.19;;;5.16;95.37
54503;BME280;40411;50.090;21.954;2024-03-07T03:31:23;65242.59;;;5.46;94.70
54503;BME280;40411;50.090;21.954;2024-03-07T03:33:50;65277.63;;;4.74;97.38
54503;BME280;40411;50.090;21.954;2024-03-07T03:36:16;65276.94;;;4.78;97.33
54503;BME280;40411;50.090;21.954;2024-03-07T03:38:42;65277.00;;;5.02;97.38
54503;BME280;40411;50.090;21.954;2024-03-07T03:41:08;65368.56;;;4.39;97.77
54503;BME280;40411;50.090;21.954;2024-03-07T03:43:34;65299.66;;;4.78;97.12
54503;BME280;40411;50.090;21.954;2024-03-07T03:46:00;65284.31;;;5.08;95.37
54503;BME280;40411;50.090;21.954;2024-03-07T03:48:28;65367.72;;;4.53;96.84
54503;BME280;40411;50.090;21.954;2024-03-07T03:50:54;65311.50;;;4.48;98.40
54503;BME280;40411;50.090;21.954;2024-03-07T03:53:20;65310.03;;;4.78;96.06
54503;BME280;40411;50.090;21.954;2024-03-07T03:55:45;65341.69;;;4.17;97.19
54503;BME280;40411;50.090;21.954;2024-03-07T03:58:11;65321.91;;;5.00;95.13
54503;BME280;40411;50.090;21.954;2024-03-07T04:00:37;65349.03;;;4.40;97.52
54503;BME280;40411;50.090;21.954;2024-03-07T04:03:05;65346.38;;;4.57;96.21
54503;BME280;40411;50.090;21.954;2024-03-07T04:05:32;65330.69;;;4.38;97.86
54503;BME280;40411;50.090;21.954;2024-03-07T04:07:59;65310.50;;;4.95;95.10
54503;BME280;40411;50.090;21.954;2024-03-07T04:10:24;65318.81;;;4.83;96.39
54503;BME280;40411;50.090;21.954;2024-03-07T04:12:51;65362.47;;;4.13;97.46
54503;BME280;40411;50.090;21.954;2024-03-07T04:15:18;65331.59;;;4.48;96.36
54503;BME280;40411;50.090;21.954;2024-03-07T04:17:44;65347.78;;;4.72;96.34
54503;BME280;40411;50.090;21.954;2024-03-07T04:20:11;65303.72;;;4.77;95.66
54503;BME280;40411;50.090;21.954;2024-03-07T04:22:39;65337.44;;;4.44;96.41
54503;BME280;40411;50.090;21.954;2024-03-07T04:25:06;65345.31;;;4.23;98.13
54503;BME280;40411;50.090;21.954;2024-03-07T04:27:33;65332.84;;;4.44;96.00
54503;BME280;40411;50.090;21.954;2024-03-07T04:30:06;65324.00;;;4.83;94.80
54503;BME280;40411;50.090;21.954;2024-03-07T04:32:33;65259.50;;;5.61;91.27
54503;BME280;40411;50.090;21.954;2024-03-07T04:35:04;65322.44;;;4.89;92.25
54503;BME280;40411;50.090;21.954;2024-03-07T04:37:34;65272.53;;;5.21;91.86
54503;BME280;40411;50.090;21.954;2024-03-07T04:40:05;65369.47;;;4.38;95.67
54503;BME280;40411;50.090;21.954;2024-03-07T04:42:48;65326.53;;;4.72;94.94
54503;BME280;40411;50.090;21.954;2024-03-07T04:45:17;65277.06;;;4.74;94.17
54503;BME280;40411;50.090;21.954;2024-03-07T04:47:44;65342.22;;;4.34;96.24
54503;BME280;40411;50.090;21.954;2024-03-07T04:50:11;65262.06;;;5.14;92.54
54503;BME280;40411;50.090;21.954;2024-03-07T04:52:38;65370.34;;;4.36;94.99
54503;BME280;40411;50.090;21.954;2024-03-07T04:55:08;65374.44;;;4.19;96.31
54503;BME280;40411;50.090;21.954;2024-03-07T04:57:39;65362.47;;;4.29;94.96
54503;BME280;40411;50.090;21.954;2024-03-07T05:00:10;65377.00;;;4.35;95.04
54503;BME280;40411;50.090;21.954;2024-03-07T05:02:41;65327.47;;;4.54;94.33
54503;BME280;40411;50.090;21.954;2024-03-07T05:05:06;65327.44;;;4.42;95.30
54503;BME280;40411;50.090;21.954;2024-03-07T05:07:33;65376.84;;;3.95;95.38
54503;BME280;40411;50.090;21.954;2024-03-07T05:10:02;65367.97;;;3.94;96.00
54503;BME280;40411;50.090;21.954;2024-03-07T05:12:31;65356.25;;;4.23;96.65
54503;BME280;40411;50.090;21.954;2024-03-07T05:14:56;65344.81;;;4.34;94.26
54503;BME280;40411;50.090;21.954;2024-03-07T05:17:22;65351.72;;;4.19;94.66
54503;BME280;40411;50.090;21.954;2024-03-07T05:19:48;65339.09;;;4.62;93.52
54503;BME280;40411;50.090;21.954;2024-03-07T05:22:15;65362.94;;;4.90;92.75
54503;BME280;40411;50.090;21.954;2024-03-07T05:24:42;65313.84;;;4.46;95.52
54503;BME280;40411;50.090;21.954;2024-03-07T05:27:11;65291.75;;;5.10;92.04
54503;BME280;40411;50.090;21.954;2024-03-07T05:29:37;65319.78;;;4.65;92.51
54503;BME280;40411;50.090;21.954;2024-03-07T05:32:25;65314.75;;;4.44;94.99
54503;BME280;40411;50.090;21.954;2024-03-07T05:34:52;65301.44;;;4.63;94.48
54503;BME280;40411;50.090;21.954;2024-03-07T05:37:22;65323.91;;;4.32;94.60
54503;BME280;40411;50.090;21.954;2024-03-07T05:39:48;65290.78;;;4.77;94.06
54503;BME280;40411;50.090;21.954;2024-03-07T05:42:15;65318.13;;;4.47;95.10
54503;BME280;40411;50.090;21.954;2024-03-07T05:44:41;65323.78;;;4.53;94.01
54503;BME280;40411;50.090;21.954;2024-03-07T05:47:08;65383.97;;;3.83;95.63
54503;BME280;40411;50.090;21.954;2024-03-07T05:49:35;65354.75;;;4.41;94.73
54503;BME280;40411;50.090;21.954;2024-03-07T05:52:04;65286.47;;;5.15;91.89
54503;BME280;40411;50.090;21.954;2024-03-07T05:55:03;65353.63;;;3.79;95.38
54503;BME280;40411;50.090;21.954;2024-03-07T05:57:32;65377.50;;;4.24;94.38
54503;BME280;40411;50.090;21.954;2024-03-07T05:59:58;65365.53;;;4.18;96.24
54503;BME280;40411;50.090;21.954;2024-03-07T06:02:24;65302.63;;;4.87;91.98
54503;BME280;40411;50.090;21.954;2024-03-07T06:04:50;65349.47;;;4.17;94.83
54503;BME280;40411;50.090;21.954;2024-03-07T06:07:16;65369.53;;;3.56;97.08
54503;BME280;40411;50.090;21.954;2024-03-07T06:09:42;65302.50;;;4.52;95.00
54503;BME280;40411;50.090;21.954;2024-03-07T06:12:09;65322.44;;;4.33;95.89
54503;BME280;40411;50.090;21.954;2024-03-07T06:14:35;65351.97;;;4.22;95.09
54503;BME280;40411;50.090;21.954;2024-03-07T06:17:01;65397.69;;;4.35;93.89
54503;BME280;40411;50.090;21.954;2024-03-07T06:19:26;65295.16;;;4.74;93.83
54503;BME280;40411;50.090;21.954;2024-03-07T06:21:52;65333.88;;;4.78;92.68
54503;BME280;40411;50.090;21.954;2024-03-07T06:24:19;65290.69;;;4.53;94.28
54503;BME280;40411;50.090;21.954;2024-03-07T06:26:47;65331.59;;;4.48;94.23
54503;BME280;40411;50.090;21.954;2024-03-07T06:29:16;65304.81;;;4.66;93.38
54503;BME280;40411;50.090;21.954;2024-03-07T06:31:43;65343.91;;;4.08;95.15
54503;BME280;40411;50.090;21.954;2024-03-07T06:34:09;65341.00;;;4.10;94.47
54503;BME280;40411;50.090;21.954;2024-03-07T06:36:35;65350.16;;;4.41;93.64
54503;BME280;40411;50.090;21.954;2024-03-07T06:39:02;65313.19;;;4.90;91.91
54503;BME280;40411;50.090;21.954;2024-03-07T06:41:35;65344.50;;;4.36;94.42
54503;BME280;40411;50.090;21.954;2024-03-07T06:44:01;65368.75;;;4.30;94.26
54503;BME280;40411;50.090;21.954;2024-03-07T06:46:27;65307.03;;;4.28;93.88
54503;BME280;40411;50.090;21.954;2024-03-07T06:48:54;65316.66;;;4.77;93.90
54503;BME280;40411;50.090;21.954;2024-03-07T06:51:21;65239.88;;;5.15;92.16
54503;BME280;40411;50.090;21.954;2024-03-07T06:53:48;65370.53;;;4.27;92.56
54503;BME280;40411;50.090;21.954;2024-03-07T06:56:16;65397.03;;;4.23;94.36
54503;BME280;40411;50.090;21.954;2024-03-07T06:58:43;65309.09;;;4.67;93.18
54503;BME280;40411;50.090;21.954;2024-03-07T07:01:14;65378.41;;;4.51;92.77
54503;BME280;40411;50.090;21.954;2024-03-07T07:03:44;65376.53;;;3.81;95.35
54503;BME280;40411;50.090;21.954;2024-03-07T07:06:10;65407.06;;;3.76;96.00
54503;BME280;40411;50.090;21.954;2024-03-07T07:08:37;65380.22;;;4.15;92.98
54503;BME280;40411;50.090;21.954;2024-03-07T07:11:03;65376.69;;;4.21;93.58
54503;BME280;40411;50.090;21.954;2024-03-07T07:13:32;65339.75;;;4.58;91.61
54503;BME280;40411;50.090;21.954;2024-03-07T07:15:58;65387.38;;;4.02;94.06
54503;BME280;40411;50.090;21.954;2024-03-07T07:18:24;65365.72;;;4.09;93.11
54503;BME280;40411;50.090;21.954;2024-03-07T07:20:50;65400.13;;;3.79;94.20
54503;BME280;40411;50.090;21.954;2024-03-07T07:23:19;65363.13;;;3.92;93.91
54503;BME280;40411;50.090;21.954;2024-03-07T07:25:45;65385.44;;;3.82;94.81
54503;BME280;40411;50.090;21.954;2024-03-07T07:28:12;65361.59;;;3.81;94.69
54503;BME280;40411;50.090;21.954;2024-03-07T07:30:38;65341.84;;;4.24;94.08
54503;BME280;40411;50.090;21.954;2024-03-07T07:33:04;65324.47;;;4.32;93.52
54503;BME280;40411;50.090;21.954;2024-03-07T07:35:30;65332.78;;;3.88;94.62
54503;BME280;40411;50.090;21.954;2024-03-07T07:37:56;65388.41;;;3.75;94.73
54503;BME280;40411;50.090;21.954;2024-03-07T07:40:24;65325.88;;;4.19;94.21
54503;BME280;40411;50.090;21.954;2024-03-07T07:42:52;65390.13;;;3.61;95.45
54503;BME280;40411;50.090;21.954;2024-03-07T07:45:20;65323.72;;;4.41;93.02
54503;BME280;40411;50.090;21.954;2024-03-07T07:47:48;65310.44;;;4.15;93.64
54503;BME280;40411;50.090;21.954;2024-03-07T07:50:16;65365.38;;;4.11;94.42
54503;BME280;40411;50.090;21.954;2024-03-07T07:52:51;65319.50;;;4.07;93.86
54503;BME280;40411;50.090;21.954;2024-03-07T07:55:29;65347.06;;;4.08;93.54
54503;BME280;40411;50.090;21.954;2024-03-07T07:57:56;65341.91;;;3.92;94.58
54503;BME280;40411;50.090;21.954;2024-03-07T08:00:24;65371.78;;;3.91;94.79
54503;BME280;40411;50.090;21.954;2024-03-07T08:03:05;65375.25;;;3.73;95.60
54503;BME280;40411;50.090;21.954;2024-03-07T08:05:35;65362.00;;;3.91;95.13
54503;BME280;40411;50.090;21.954;2024-03-07T08:08:08;65361.88;;;4.29;94.48
54503;BME280;40411;50.090;21.954;2024-03-07T08:10:37;65311.03;;;4.43;92.23
54503;BME280;40411;50.090;21.954;2024-03-07T08:13:04;65371.56;;;3.72;93.65
54503;BME280;40411;50.090;21.954;2024-03-07T08:15:32;65345.53;;;3.97;94.23
54503;BME280;40411;50.090;21.954;2024-03-07T08:17:59;65411.41;;;4.22;92.67
54503;BME280;40411;50.090;21.954;2024-03-07T08:20:26;65330.72;;;4.50;92.29
54503;BME280;40411;50.090;21.954;2024-03-07T08:22:54;65364.22;;;4.26;91.20
54503;BME280;40411;50.090;21.954;2024-03-07T08:25:23;65367.75;;;3.92;91.21
54503;BME280;40411;50.090;21.954;2024-03-07T08:27:50;65333.28;;;4.66;89.79
54503;BME280;40411;50.090;21.954;2024-03-07T08:30:17;65348.00;;;4.18;90.98
54503;BME280;40411;50.090;21.954;2024-03-07T08:32:45;65388.97;;;3.92;90.44
54503;BME280;40411;50.090;21.954;2024-03-07T08:35:12;65401.91;;;3.76;90.82
54503;BME280;40411;50.090;21.954;2024-03-07T08:37:39;65319.13;;;4.41;89.51
54503;BME280;40411;50.090;21.954;2024-03-07T08:40:07;65379.53;;;3.74;91.08
54503;BME280;40411;50.090;21.954;2024-03-07T08:42:39;65361.09;;;4.09;89.78
54503;BME280;40411;50.090;21.954;2024-03-07T08:45:08;65312.50;;;4.82;87.66
54503;BME280;40411;50.090;21.954;2024-03-07T08:47:37;65314.41;;;4.75;87.84
54503;BME280;40411;50.090;21.954;2024-03-07T08:50:04;65316.81;;;4.96;87.58
54503;BME280;40411;50.090;21.954;2024-03-07T08:52:36;65425.47;;;4.23;87.54
54503;BME280;40411;50.090;21.954;2024-03-07T08:55:03;65361.69;;;4.54;87.98
54503;BME280;40411;50.090;21.954;2024-03-07T08:57:30;65398.19;;;3.75;89.05
54503;BME280;40411;50.090;21.954;2024-03-07T08:59:56;65303.75;;;4.88;86.88
54503;BME280;40411;50.090;21.954;2024-03-07T09:02:22;65338.03;;;4.28;88.39
54503;BME280;40411;50.090;21.954;2024-03-07T09:04:49;65414.50;;;4.11;87.57
54503;BME280;40411;50.090;21.954;2024-03-07T09:07:15;65396.91;;;3.99;87.92
54503;BME280;40411;50.090;21.954;2024-03-07T09:09:43;65325.16;;;4.68;86.61
54503;BME280;40411;50.090;21.954;2024-03-07T09:12:11;65346.38;;;4.57;86.40
54503;BME280;40411;50.090;21.954;2024-03-07T09:14:38;65339.13;;;4.45;86.79
54503;BME280;40411;50.090;21.954;2024-03-07T09:17:04;65368.44;;;4.60;85.99
54503;BME280;40411;50.090;21.954;2024-03-07T09:19:33;65343.94;;;4.36;86.27
54503;BME280;40411;50.090;21.954;2024-03-07T09:21:58;65399.13;;;4.18;86.49
54503;BME280;40411;50.090;21.954;2024-03-07T09:24:25;65366.22;;;4.70;85.75
54503;BME280;40411;50.090;21.954;2024-03-07T09:26:52;65296.94;;;5.10;85.74
54503;BME280;40411;50.090;21.954;2024-03-07T09:29:20;65341.88;;;4.53;86.74
54503;BME280;40411;50.090;21.954;2024-03-07T09:31:46;65370.84;;;4.41;86.69
54503;BME280;40411;50.090;21.954;2024-03-07T09:34:13;65342.66;;;4.56;85.61
54503;BME280;40411;50.090;21.954;2024-03-07T09:36:40;65339.00;;;4.95;84.26
54503;BME280;40411;50.090;21.954;2024-03-07T09:39:09;65312.16;;;4.84;85.18
54503;BME280;40411;50.090;21.954;2024-03-07T09:41:35;65347.31;;;4.67;84.91
54503;BME280;40411;50.090;21.954;2024-03-07T09:44:02;65242.47;;;5.50;83.63
54503;BME280;40411;50.090;21.954;2024-03-07T09:46:30;65370.94;;;4.65;82.85
54503;BME280;40411;50.090;21.954;2024-03-07T09:48:57;65368.19;;;4.74;84.28
54503;BME280;40411;50.090;21.954;2024-03-07T09:51:24;65284.94;;;5.32;83.26
54503;BME280;40411;50.090;21.954;2024-03-07T09:53:52;65308.97;;;5.12;82.69
54503;BME280;40411;50.090;21.954;2024-03-07T09:56:21;65333.66;;;4.87;83.38
54503;BME280;40411;50.090;21.954;2024-03-07T09:58:51;65290.56;;;5.37;83.75
54503;BME280;40411;50.090;21.954;2024-03-07T10:01:21;65300.31;;;5.02;82.92
54503;BME280;40411;50.090;21.954;2024-03-07T10:03:48;65253.53;;;6.05;81.74
54503;BME280;40411;50.090;21.954;2024-03-07T10:06:15;65331.41;;;5.25;81.49
54503;BME280;40411;50.090;21.954;2024-03-07T10:08:42;65330.34;;;4.68;82.96
54503;BME280;40411;50.090;21.954;2024-03-07T10:11:08;65270.19;;;5.47;81.43
54503;BME280;40411;50.090;21.954;2024-03-07T10:13:35;65325.47;;;4.94;79.87
54503;BME280;40411;50.090;21.954;2024-03-07T10:16:01;65231.53;;;6.20;78.33
54503;BME280;40411;50.090;21.954;2024-03-07T10:18:27;65271.78;;;5.89;78.52
54503;BME280;40411;50.090;21.954;2024-03-07T10:20:54;65222.03;;;6.31;77.89
54503;BME280;40411;50.090;21.954;2024-03-07T10:23:22;65208.66;;;6.56;77.97
54503;BME280;40411;50.090;21.954;2024-03-07T10:25:48;65221.16;;;6.20;76.27
54503;BME280;40411;50.090;21.954;2024-03-07T10:28:16;65112.03;;;7.43;75.39
54503;BME280;40411;50.090;21.954;2024-03-07T10:30:43;65167.72;;;7.06;76.00
54503;BME280;40411;50.090;21.954;2024-03-07T10:33:12;65131.44;;;7.13;75.29
54503;BME280;40411;50.090;21.954;2024-03-07T10:35:38;65282.94;;;6.03;76.97
54503;BME280;40411;50.090;21.954;2024-03-07T10:38:05;65350.84;;;5.57;76.77
54503;BME280;40411;50.090;21.954;2024-03-07T10:40:38;65329.91;;;5.54;77.89
54503;BME280;40411;50.090;21.954;2024-03-07T10:43:10;65235.00;;;6.31;76.26
54503;BME280;40411;50.090;21.954;2024-03-07T10:45:47;65325.16;;;5.48;76.79
54503;BME280;40411;50.090;21.954;2024-03-07T10:48:18;65267.94;;;5.92;76.66
54503;BME280;40411;50.090;21.954;2024-03-07T10:51:13;65243.28;;;5.89;76.81
54503;BME280;40411;50.090;21.954;2024-03-07T10:53:46;65263.66;;;6.26;76.15
54503;BME280;40411;50.090;21.954;2024-03-07T10:59:01;65177.34;;;6.72;75.68
54503;BME280;40411;50.090;21.954;2024-03-07T11:01:35;65175.94;;;7.11;73.28
54503;BME280;40411;50.090;21.954;2024-03-07T11:04:04;65179.94;;;7.03;74.27
54503;BME280;40411;50.090;21.954;2024-03-07T11:06:32;65230.47;;;6.81;71.79
54503;BME280;40411;50.090;21.954;2024-03-07T11:09:01;65291.72;;;6.21;74.53
54503;BME280;40411;50.090;21.954;2024-03-07T11:11:39;65255.44;;;6.09;75.12
54503;BME280;40411;50.090;21.954;2024-03-07T11:14:11;65314.72;;;5.88;77.54
54503;BME280;40411;50.090;21.954;2024-03-07T11:16:40;65198.72;;;6.92;74.95
54503;BME280;40411;50.090;21.954;2024-03-07T11:19:26;65200.44;;;6.82;74.56
54503;BME280;40411;50.090;21.954;2024-03-07T11:21:56;65189.28;;;7.28;72.18
54503;BME280;40411;50.090;21.954;2024-03-07T11:24:23;65151.31;;;7.34;71.68
54503;BME280;40411;50.090;21.954;2024-03-07T11:26:54;65218.78;;;6.65;72.64
54503;BME280;40411;50.090;21.954;2024-03-07T11:32:01;65248.66;;;6.81;73.44
54503;BME280;40411;50.090;21.954;2024-03-07T11:34:29;65147.59;;;7.33;71.95
54503;BME280;40411;50.090;21.954;2024-03-07T11:36:56;65218.56;;;6.63;73.90
54503;BME280;40411;50.090;21.954;2024-03-07T11:39:41;65181.00;;;7.16;72.44
54503;BME280;40411;50.090;21.954;2024-03-07T11:42:26;65258.94;;;6.74;72.95
54503;BME280;40411;50.090;21.954;2024-03-07T11:44:55;65262.63;;;6.32;74.35
54503;BME280;40411;50.090;21.954;2024-03-07T11:47:23;65274.16;;;6.10;75.03
54503;BME280;40411;50.090;21.954;2024-03-07T11:49:50;65233.72;;;6.46;73.37
54503;BME280;40411;50.090;21.954;2024-03-07T11:52:20;65154.97;;;7.28;72.15
54503;BME280;40411;50.090;21.954;2024-03-07T11:54:46;65185.63;;;7.15;72.55
54503;BME280;40411;50.090;21.954;2024-03-07T11:57:23;65224.69;;;6.92;73.58
54503;BME280;40411;50.090;21.954;2024-03-07T11:59:58;65075.91;;;8.50;69.95
54503;BME280;40411;50.090;21.954;2024-03-07T12:02:27;64969.94;;;9.08;66.23
54503;BME280;40411;50.090;21.954;2024-03-07T12:04:55;65142.91;;;7.90;67.39
54503;BME280;40411;50.090;21.954;2024-03-07T12:07:20;65197.53;;;7.52;69.02
54503;BME280;40411;50.090;21.954;2024-03-07T12:09:49;65190.63;;;7.32;69.86
54503;BME280;40411;50.090;21.954;2024-03-07T12:12:22;65198.84;;;7.37;71.76
54503;BME280;40411;50.090;21.954;2024-03-07T12:14:48;65211.19;;;7.10;71.07
54503;BME280;40411;50.090;21.954;2024-03-07T12:17:17;65209.94;;;6.83;73.59
54503;BME280;40411;50.090;21.954;2024-03-07T12:19:43;65153.47;;;7.67;70.02
54503;BME280;40411;50.090;21.954;2024-03-07T12:22:11;65141.06;;;7.93;68.68
54503;BME280;40411;50.090;21.954;2024-03-07T12:24:41;65226.50;;;6.89;70.58
54503;BME280;40411;50.090;21.954;2024-03-07T12:27:11;65250.34;;;6.70;72.00
54503;BME280;40411;50.090;21.954;2024-03-07T12:29:41;65253.72;;;6.74;72.46
54503;BME280;40411;50.090;21.954;2024-03-07T12:32:14;65173.16;;;7.28;71.54
54503;BME280;40411;50.090;21.954;2024-03-07T12:34:40;65144.31;;;7.82;68.93
54503;BME280;40411;50.090;21.954;2024-03-07T12:37:11;65192.66;;;7.50;69.70
54503;BME280;40411;50.090;21.954;2024-03-07T12:39:42;65246.72;;;7.19;70.02
54503;BME280;40411;50.090;21.954;2024-03-07T12:42:18;65236.34;;;7.38;70.92
54503;BME280;40411;50.090;21.954;2024-03-07T12:44:46;65240.31;;;6.99;71.13
54503;BME280;40411;50.090;21.954;2024-03-07T12:47:15;65178.34;;;7.47;71.38
54503;BME280;40411;50.090;21.954;2024-03-07T12:49:42;65188.72;;;7.28;69.80
54503;BME280;40411;50.090;21.954;2024-03-07T12:52:09;65153.03;;;7.80;69.79
54503;BME280;40411;50.090;21.954;2024-03-07T12:54:36;65221.19;;;7.12;69.17
54503;BME280;40411;50.090;21.954;2024-03-07T12:57:11;65243.91;;;7.16;70.77
54503;BME280;40411;50.090;21.954;2024-03-07T12:59:37;65290.00;;;6.55;71.86
54503;BME280;40411;50.090;21.954;2024-03-07T13:02:09;65277.69;;;6.62;71.13
54503;BME280;40411;50.090;21.954;2024-03-07T13:04:36;65268.94;;;6.87;70.37
54503;BME280;40411;50.090;21.954;2024-03-07T13:07:04;65231.34;;;6.91;72.02
54503;BME280;40411;50.090;21.954;2024-03-07T13:09:38;65175.94;;;7.30;70.78